sensor_id;sensor_type;location;lat;lon;timestamp;noise_LAeq;noise_LA_min;noise_LA_max;noise_LA01;noise_LA95
71020;Laerm;58902;51.436;5.980;2023-07-13T00:00:03;32.14;30.53;34.01;;
71020;Laerm;58902;51.436;5.980;2023-07-13T00:00:19;40.63;30.95;53.92;;
71020;Laerm;58902;51.436;5.980;2023-07-13T00:00:29;33.24;31.56;35.76;;
71020;Laerm;58902;51.436;5.980;2023-07-13T00:00:40;31.85;29.74;33.89;;
71020;Laerm;58902;51.436;5.980;2023-07-13T00:00:52;31.06;29.51;32.88;;
71020;Laerm;58902;51.436;5.980;2023-07-13T00:01:02;30.87;29.17;32.32;;
71020;Laerm;58902;51.436;5.980;2023-07-13T00:01:13;29.81;28.44;31.38;;
71020;Laerm;58902;51.436;5.980;2023-07-13T00:01:24;29.18;28.12;30.56;;
71020;Laerm;58902;51.436;5.980;2023-07-13T00:01:34;29.19;28.29;30.14;;
71020;Laerm;58902;51.436;5.980;2023-07-13T00:01:44;29.17;28.10;31.05;;
71020;Laerm;58902;51.436;5.980;2023-07-13T00:01:56;28.99;27.58;30.81;;
71020;Laerm;58902;51.436;5.980;2023-07-13T00:02:07;28.96;27.81;30.09;;
71020;Laerm;58902;51.436;5.980;2023-07-13T00:02:17;29.03;27.94;30.05;;
71020;Laerm;58902;51.436;5.980;2023-07-13T00:02:28;29.31;28.14;30.44;;
71020;Laerm;58902;51.436;5.980;2023-07-13T00:02:38;29.60;28.63;30.84;;
71020;Laerm;58902;51.436;5.980;2023-07-13T00:02:48;29.37;28.28;31.53;;
71020;Laerm;58902;51.436;5.980;2023-07-13T00:02:59;29.37;28.32;30.41;;
71020;Laerm;58902;51.436;5.980;2023-07-13T00:03:09;29.42;28.37;31.07;;
71020;Laerm;58902;51.436;5.980;2023-07-13T00:03:23;29.55;28.15;38.95;;
71020;Laerm;58902;51.436;5.980;2023-07-13T00:03:34;29.47;28.43;30.78;;
71020;Laerm;58902;51.436;5.980;2023-07-13T00:03:45;29.67;28.51;31.07;;
71020;Laerm;58902;51.436;5.980;2023-07-13T00:03:56;29.67;28.50;31.27;;
71020;Laerm;58902;51.436;5.980;2023-07-13T00:04:06;29.86;28.79;31.27;;
71020;Laerm;58902;51.436;5.980;2023-07-13T00:04:17;30.38;29.14;31.80;;
71020;Laerm;58902;51.436;5.980;2023-07-13T00:04:28;30.75;29.20;32.17;;
71020;Laerm;58902;51.436;5.980;2023-07-13T00:04:38;30.81;28.83;32.20;;
71020;Laerm;58902;51.436;5.980;2023-07-13T00:04:49;30.41;29.41;31.73;;
71020;Laerm;58902;51.436;5.980;2023-07-13T00:05:00;30.90;29.63;33.50;;
71020;Laerm;58902;51.436;5.980;2023-07-13T00:05:10;31.90;29.41;36.15;;
71020;Laerm;58902;51.436;5.980;2023-07-13T00:05:22;32.23;31.18;33.42;;
71020;Laerm;58902;51.436;5.980;2023-07-13T00:05:32;32.18;30.10;33.47;;
71020;Laerm;58902;51.436;5.980;2023-07-13T00:05:43;32.59;29.88;34.65;;
71020;Laerm;58902;51.436;5.980;2023-07-13T00:05:59;34.01;32.47;35.53;;
71020;Laerm;58902;51.436;5.980;2023-07-13T00:06:10;34.90;31.62;39.01;;
71020;Laerm;58902;51.436;5.980;2023-07-13T00:06:20;35.81;34.45;36.85;;
71020;Laerm;58902;51.436;5.980;2023-07-13T00:06:31;35.26;33.57;36.51;;
71020;Laerm;58902;51.436;5.980;2023-07-13T00:06:43;32.19;30.74;34.49;;
71020;Laerm;58902;51.436;5.980;2023-07-13T00:06:54;32.02;30.58;33.34;;
71020;Laerm;58902;51.436;5.980;2023-07-13T00:07:05;32.01;30.74;36.69;;
71020;Laerm;58902;51.436;5.980;2023-07-13T00:07:15;31.95;30.61;33.29;;
71020;Laerm;58902;51.436;5.980;2023-07-13T00:07:29;31.85;30.73;33.60;;
71020;Laerm;58902;51.436;5.980;2023-07-13T00:07:41;33.61;30.65;37.30;;
71020;Laerm;58902;51.436;5.980;2023-07-13T00:07:52;33.74;31.43;37.36;;
71020;Laerm;58902;51.436;5.980;2023-07-13T00:08:02;33.58;31.58;42.93;;
71020;Laerm;58902;51.436;5.980;2023-07-13T00:08:13;32.01;29.64;35.16;;
71020;Laerm;58902;51.436;5.980;2023-07-13T00:08:23;30.41;29.15;33.77;;
71020;Laerm;58902;51.436;5.980;2023-07-13T00:08:34;31.53;29.63;34.60;;
71020;Laerm;58902;51.436;5.980;2023-07-13T00:08:44;33.53;30.73;37.47;;
71020;Laerm;58902;51.436;5.980;2023-07-13T00:08:55;32.22;29.40;35.93;;
71020;Laerm;58902;51.436;5.980;2023-07-13T00:09:05;30.46;29.20;31.91;;
71020;Laerm;58902;51.436;5.980;2023-07-13T00:09:17;30.15;28.93;31.26;;
71020;Laerm;58902;51.436;5.980;2023-07-13T00:09:27;30.05;28.98;32.51;;
71020;Laerm;58902;51.436;5.980;2023-07-13T00:09:38;29.89;28.49;32.17;;
71020;Laerm;58902;51.436;5.980;2023-07-13T00:09:48;31.09;28.99;34.74;;
71020;Laerm;58902;51.436;5.980;2023-07-13T00:09:58;32.20;29.78;35.61;;
71020;Laerm;58902;51.436;5.980;2023-07-13T00:10:09;32.54;30.25;35.54;;
71020;Laerm;58902;51.436;5.980;2023-07-13T00:10:20;34.17;31.93;36.31;;
71020;Laerm;58902;51.436;5.980;2023-07-13T00:10:30;33.59;31.73;35.22;;
71020;Laerm;58902;51.436;5.980;2023-07-13T00:10:41;33.23;30.75;35.52;;
71020;Laerm;58902;51.436;5.980;2023-07-13T00:10:52;32.39;30.15;34.24;;
71020;Laerm;58902;51.436;5.980;2023-07-13T00:11:04;32.14;30.60;33.72;;
71020;Laerm;58902;51.436;5.980;2023-07-13T00:11:17;31.79;29.50;40.14;;
71020;Laerm;58902;51.436;5.980;2023-07-13T00:11:28;31.29;29.90;36.78;;
71020;Laerm;58902;51.436;5.980;2023-07-13T00:11:38;31.27;29.85;33.50;;
71020;Laerm;58902;51.436;5.980;2023-07-13T00:11:52;31.98;29.68;37.46;;
71020;Laerm;58902;51.436;5.980;2023-07-13T00:12:03;30.42;29.11;32.05;;
71020;Laerm;58902;51.436;5.980;2023-07-13T00:12:24;30.82;29.41;33.48;;
71020;Laerm;58902;51.436;5.980;2023-07-13T00:12:35;30.46;29.17;32.41;;
71020;Laerm;58902;51.436;5.980;2023-07-13T00:12:46;30.50;28.95;32.08;;
71020;Laerm;58902;51.436;5.980;2023-07-13T00:12:56;30.29;28.81;32.17;;
71020;Laerm;58902;51.436;5.980;2023-07-13T00:13:07;29.99;28.73;31.23;;
71020;Laerm;58902;51.436;5.980;2023-07-13T00:13:17;30.63;29.16;32.83;;
71020;Laerm;58902;51.436;5.980;2023-07-13T00:13:28;30.46;29.26;32.30;;
71020;Laerm;58902;51.436;5.980;2023-07-13T00:13:38;30.41;29.05;33.69;;
71020;Laerm;58902;51.436;5.980;2023-07-13T00:13:49;30.08;28.97;31.51;;
71020;Laerm;58902;51.436;5.980;2023-07-13T00:13:59;30.22;28.92;31.92;;
71020;Laerm;58902;51.436;5.980;2023-07-13T00:14:10;29.91;28.73;31.32;;
71020;Laerm;58902;51.436;5.980;2023-07-13T00:14:20;29.79;28.50;33.22;;
71020;Laerm;58902;51.436;5.980;2023-07-13T00:14:31;29.78;28.16;31.50;;
71020;Laerm;58902;51.436;5.980;2023-07-13T00:14:41;29.66;28.42;31.43;;
71020;Laerm;58902;51.436;5.980;2023-07-13T00:14:51;29.81;28.53;35.51;;
71020;Laerm;58902;51.436;5.980;2023-07-13T00:15:05;29.73;28.74;31.72;;
71020;Laerm;58902;51.436;5.980;2023-07-13T00:15:20;30.07;28.74;31.72;;
71020;Laerm;58902;51.436;5.980;2023-07-13T00:15:33;30.62;28.97;32.78;;
71020;Laerm;58902;51.436;5.980;2023-07-13T00:15:43;31.21;29.15;38.10;;
71020;Laerm;58902;51.436;5.980;2023-07-13T00:15:54;32.05;29.65;34.06;;
71020;Laerm;58902;51.436;5.980;2023-07-13T00:16:04;31.74;30.06;33.27;;
71020;Laerm;58902;51.436;5.980;2023-07-13T00:16:15;31.74;30.06;34.09;;
71020;Laerm;58902;51.436;5.980;2023-07-13T00:16:25;36.38;31.78;54.56;;
71020;Laerm;58902;51.436;5.980;2023-07-13T00:16:37;32.86;31.20;35.95;;
71020;Laerm;58902;51.436;5.980;2023-07-13T00:16:48;35.37;32.10;42.26;;
71020;Laerm;58902;51.436;5.980;2023-07-13T00:16:58;34.89;31.45;40.42;;
71020;Laerm;58902;51.436;5.980;2023-07-13T00:17:10;35.17;32.19;38.17;;
71020;Laerm;58902;51.436;5.980;2023-07-13T00:17:20;34.78;31.45;38.78;;
71020;Laerm;58902;51.436;5.980;2023-07-13T00:17:31;32.32;30.76;33.76;;
71020;Laerm;58902;51.436;5.980;2023-07-13T00:17:41;32.01;30.53;34.81;;
71020;Laerm;58902;51.436;5.980;2023-07-13T00:17:55;32.39;30.86;37.99;;
71020;Laerm;58902;51.436;5.980;2023-07-13T00:18:05;32.21;30.92;33.89;;
71020;Laerm;58902;51.436;5.980;2023-07-13T00:18:15;31.93;30.70;33.12;;
71020;Laerm;58902;51.436;5.980;2023-07-13T00:18:26;31.99;30.88;33.07;;
71020;Laerm;58902;51.436;5.980;2023-07-13T00:18:40;32.08;30.48;33.56;;
71020;Laerm;58902;51.436;5.980;2023-07-13T00:18:50;32.35;30.99;35.45;;
71020;Laerm;58902;51.436;5.980;2023-07-13T00:19:03;32.35;31.19;33.59;;
71020;Laerm;58902;51.436;5.980;2023-07-13T00:19:13;32.56;31.45;33.86;;
71020;Laerm;58902;51.436;5.980;2023-07-13T00:19:24;32.77;31.46;34.18;;
71020;Laerm;58902;51.436;5.980;2023-07-13T00:19:34;40.04;31.64;45.51;;
71020;Laerm;58902;51.436;5.980;2023-07-13T00:19:46;40.91;34.54;44.83;;
71020;Laerm;58902;51.436;5.980;2023-07-13T00:19:56;37.09;34.52;39.72;;
71020;Laerm;58902;51.436;5.980;2023-07-13T00:20:07;37.64;35.63;41.89;;
71020;Laerm;58902;51.436;5.980;2023-07-13T00:20:18;40.57;36.57;48.67;;
71020;Laerm;58902;51.436;5.980;2023-07-13T00:20:31;73.27;48.40;79.29;;
71020;Laerm;58902;51.436;5.980;2023-07-13T00:20:43;75.69;70.07;82.15;;
71020;Laerm;58902;51.436;5.980;2023-07-13T00:20:54;60.12;43.42;74.21;;
71020;Laerm;58902;51.436;5.980;2023-07-13T00:21:04;42.77;36.54;48.88;;
71020;Laerm;58902;51.436;5.980;2023-07-13T00:21:17;36.13;32.57;41.04;;
71020;Laerm;58902;51.436;5.980;2023-07-13T00:21:27;33.13;30.37;35.26;;
71020;Laerm;58902;51.436;5.980;2023-07-13T00:21:38;31.00;29.48;34.90;;
71020;Laerm;58902;51.436;5.980;2023-07-13T00:21:49;30.41;29.10;33.76;;
71020;Laerm;58902;51.436;5.980;2023-07-13T00:21:59;31.19;29.30;34.70;;
71020;Laerm;58902;51.436;5.980;2023-07-13T00:22:09;31.98;30.00;34.85;;
71020;Laerm;58902;51.436;5.980;2023-07-13T00:22:20;33.87;30.47;46.99;;
71020;Laerm;58902;51.436;5.980;2023-07-13T00:22:30;33.07;31.73;34.20;;
71020;Laerm;58902;51.436;5.980;2023-07-13T00:22:41;33.67;31.31;35.18;;
71020;Laerm;58902;51.436;5.980;2023-07-13T00:22:52;33.92;30.61;35.71;;
71020;Laerm;58902;51.436;5.980;2023-07-13T00:23:05;32.58;30.03;35.21;;
71020;Laerm;58902;51.436;5.980;2023-07-13T00:23:15;31.10;29.69;32.73;;
71020;Laerm;58902;51.436;5.980;2023-07-13T00:23:27;31.37;29.68;35.33;;
71020;Laerm;58902;51.436;5.980;2023-07-13T00:23:38;30.43;28.95;31.60;;
71020;Laerm;58902;51.436;5.980;2023-07-13T00:23:49;30.16;29.08;31.67;;
71020;Laerm;58902;51.436;5.980;2023-07-13T00:23:59;30.71;28.88;33.84;;
71020;Laerm;58902;51.436;5.980;2023-07-13T00:24:11;30.14;29.01;31.41;;
71020;Laerm;58902;51.436;5.980;2023-07-13T00:24:25;30.12;28.79;31.69;;
71020;Laerm;58902;51.436;5.980;2023-07-13T00:24:37;30.89;28.65;42.34;;
71020;Laerm;58902;51.436;5.980;2023-07-13T00:24:52;29.95;28.85;32.90;;
71020;Laerm;58902;51.436;5.980;2023-07-13T00:25:03;29.97;28.96;31.33;;
71020;Laerm;58902;51.436;5.980;2023-07-13T00:25:13;30.13;28.88;32.29;;
71020;Laerm;58902;51.436;5.980;2023-07-13T00:25:24;29.86;28.58;31.08;;
71020;Laerm;58902;51.436;5.980;2023-07-13T00:25:38;29.68;28.59;31.66;;
71020;Laerm;58902;51.436;5.980;2023-07-13T00:25:48;29.84;28.52;30.96;;
71020;Laerm;58902;51.436;5.980;2023-07-13T00:26:01;30.10;28.93;31.86;;
71020;Laerm;58902;51.436;5.980;2023-07-13T00:26:12;30.11;28.80;31.55;;
71020;Laerm;58902;51.436;5.980;2023-07-13T00:26:22;29.84;28.78;31.42;;
71020;Laerm;58902;51.436;5.980;2023-07-13T00:26:33;29.88;28.61;32.51;;
71020;Laerm;58902;51.436;5.980;2023-07-13T00:26:44;30.15;29.09;32.48;;
71020;Laerm;58902;51.436;5.980;2023-07-13T00:26:57;30.79;29.18;34.16;;
71020;Laerm;58902;51.436;5.980;2023-07-13T00:27:08;31.28;29.58;32.70;;
71020;Laerm;58902;51.436;5.980;2023-07-13T00:27:19;31.24;29.61;33.70;;
71020;Laerm;58902;51.436;5.980;2023-07-13T00:27:29;31.33;29.74;32.78;;
71020;Laerm;58902;51.436;5.980;2023-07-13T00:27:42;31.38;30.17;32.88;;
71020;Laerm;58902;51.436;5.980;2023-07-13T00:27:52;32.54;30.40;36.07;;
71020;Laerm;58902;51.436;5.980;2023-07-13T00:28:03;32.74;30.94;36.46;;
71020;Laerm;58902;51.436;5.980;2023-07-13T00:28:13;32.16;30.94;33.35;;
71020;Laerm;58902;51.436;5.980;2023-07-13T00:28:23;31.84;30.35;33.66;;
71020;Laerm;58902;51.436;5.980;2023-07-13T00:28:34;35.98;31.16;38.90;;
71020;Laerm;58902;51.436;5.980;2023-07-13T00:28:44;36.52;35.30;37.47;;
71020;Laerm;58902;51.436;5.980;2023-07-13T00:28:55;35.16;31.23;39.53;;
71020;Laerm;58902;51.436;5.980;2023-07-13T00:29:05;32.30;30.57;33.67;;
71020;Laerm;58902;51.436;5.980;2023-07-13T00:29:19;38.07;32.51;42.03;;
71020;Laerm;58902;51.436;5.980;2023-07-13T00:29:31;34.56;32.25;44.47;;
71020;Laerm;58902;51.436;5.980;2023-07-13T00:29:44;33.14;31.61;35.15;;
71020;Laerm;58902;51.436;5.980;2023-07-13T00:29:54;33.63;31.68;35.96;;
71020;Laerm;58902;51.436;5.980;2023-07-13T00:30:05;32.80;31.19;34.67;;
71020;Laerm;58902;51.436;5.980;2023-07-13T00:30:16;32.40;30.94;34.17;;
71020;Laerm;58902;51.436;5.980;2023-07-13T00:30:27;32.97;31.61;34.41;;
71020;Laerm;58902;51.436;5.980;2023-07-13T00:30:37;32.58;31.04;37.89;;
71020;Laerm;58902;51.436;5.980;2023-07-13T00:30:47;32.21;30.92;33.54;;
71020;Laerm;58902;51.436;5.980;2023-07-13T00:30:58;32.64;31.20;43.24;;
71020;Laerm;58902;51.436;5.980;2023-07-13T00:31:09;40.38;30.36;53.13;;
71020;Laerm;58902;51.436;5.980;2023-07-13T00:31:19;31.88;30.43;34.00;;
71020;Laerm;58902;51.436;5.980;2023-07-13T00:31:30;31.95;30.84;32.99;;
71020;Laerm;58902;51.436;5.980;2023-07-13T00:31:40;31.90;30.59;33.63;;
71020;Laerm;58902;51.436;5.980;2023-07-13T00:31:51;32.98;30.95;37.43;;
71020;Laerm;58902;51.436;5.980;2023-07-13T00:32:02;33.50;30.40;38.89;;
71020;Laerm;58902;51.436;5.980;2023-07-13T00:32:13;33.43;30.73;37.63;;
71020;Laerm;58902;51.436;5.980;2023-07-13T00:32:23;33.33;30.45;43.54;;
71020;Laerm;58902;51.436;5.980;2023-07-13T00:32:35;32.67;30.91;36.38;;
71020;Laerm;58902;51.436;5.980;2023-07-13T00:32:45;31.58;29.94;33.78;;
71020;Laerm;58902;51.436;5.980;2023-07-13T00:32:56;31.20;29.98;32.45;;
71020;Laerm;58902;51.436;5.980;2023-07-13T00:33:06;31.48;30.09;38.08;;
71020;Laerm;58902;51.436;5.980;2023-07-13T00:33:17;31.67;30.16;34.13;;
71020;Laerm;58902;51.436;5.980;2023-07-13T00:33:28;31.32;30.15;33.24;;
71020;Laerm;58902;51.436;5.980;2023-07-13T00:33:39;31.75;29.87;33.71;;
71020;Laerm;58902;51.436;5.980;2023-07-13T00:33:50;31.59;29.79;33.06;;
71020;Laerm;58902;51.436;5.980;2023-07-13T00:34:00;30.68;29.64;31.87;;
71020;Laerm;58902;51.436;5.980;2023-07-13T00:34:11;30.64;29.48;31.78;;
71020;Laerm;58902;51.436;5.980;2023-07-13T00:34:21;30.84;29.41;32.40;;
71020;Laerm;58902;51.436;5.980;2023-07-13T00:34:32;31.04;29.68;32.52;;
71020;Laerm;58902;51.436;5.980;2023-07-13T00:34:42;31.69;30.27;33.78;;
71020;Laerm;58902;51.436;5.980;2023-07-13T00:34:53;35.65;30.86;40.99;;
71020;Laerm;58902;51.436;5.980;2023-07-13T00:35:03;36.86;32.48;42.37;;
71020;Laerm;58902;51.436;5.980;2023-07-13T00:35:14;35.72;31.91;40.60;;
71020;Laerm;58902;51.436;5.980;2023-07-13T00:35:25;32.52;29.54;38.67;;
71020;Laerm;58902;51.436;5.980;2023-07-13T00:35:35;31.20;29.56;32.76;;
71020;Laerm;58902;51.436;5.980;2023-07-13T00:35:46;31.53;29.74;33.40;;
71020;Laerm;58902;51.436;5.980;2023-07-13T00:35:56;31.07;29.51;32.69;;
71020;Laerm;58902;51.436;5.980;2023-07-13T00:36:07;32.03;30.07;35.67;;
71020;Laerm;58902;51.436;5.980;2023-07-13T00:36:19;32.51;30.37;35.33;;
71020;Laerm;58902;51.436;5.980;2023-07-13T00:36:30;32.21;30.08;34.99;;
71020;Laerm;58902;51.436;5.980;2023-07-13T00:36:41;31.72;29.82;33.78;;
71020;Laerm;58902;51.436;5.980;2023-07-13T00:36:51;31.29;29.67;33.07;;
71020;Laerm;58902;51.436;5.980;2023-07-13T00:37:02;31.77;29.84;34.69;;
71020;Laerm;58902;51.436;5.980;2023-07-13T00:37:12;31.26;29.77;33.96;;
71020;Laerm;58902;51.436;5.980;2023-07-13T00:37:23;30.88;29.48;32.40;;
71020;Laerm;58902;51.436;5.980;2023-07-13T00:37:33;30.71;29.13;32.38;;
71020;Laerm;58902;51.436;5.980;2023-07-13T00:37:45;30.43;29.02;32.12;;
71020;Laerm;58902;51.436;5.980;2023-07-13T00:37:56;30.43;29.02;32.02;;
71020;Laerm;58902;51.436;5.980;2023-07-13T00:38:06;30.63;29.25;32.18;;
71020;Laerm;58902;51.436;5.980;2023-07-13T00:38:16;30.24;28.90;31.40;;
71020;Laerm;58902;51.436;5.980;2023-07-13T00:38:27;30.43;29.34;32.25;;
71020;Laerm;58902;51.436;5.980;2023-07-13T00:38:37;30.57;29.12;33.34;;
71020;Laerm;58902;51.436;5.980;2023-07-13T00:38:48;30.55;29.25;32.77;;
71020;Laerm;58902;51.436;5.980;2023-07-13T00:38:58;30.43;29.41;31.75;;
71020;Laerm;58902;51.436;5.980;2023-07-13T00:39:08;30.60;28.99;31.96;;
71020;Laerm;58902;51.436;5.980;2023-07-13T00:39:19;30.73;29.36;31.81;;
71020;Laerm;58902;51.436;5.980;2023-07-13T00:39:31;30.79;29.58;31.94;;
71020;Laerm;58902;51.436;5.980;2023-07-13T00:39:41;31.02;29.62;33.36;;
71020;Laerm;58902;51.436;5.980;2023-07-13T00:39:51;31.14;29.50;32.60;;
71020;Laerm;58902;51.436;5.980;2023-07-13T00:40:03;31.03;29.50;32.97;;
71020;Laerm;58902;51.436;5.980;2023-07-13T00:40:14;31.39;29.70;33.26;;
71020;Laerm;58902;51.436;5.980;2023-07-13T00:40:24;31.40;30.15;35.56;;
71020;Laerm;58902;51.436;5.980;2023-07-13T00:40:34;32.41;30.28;36.66;;
71020;Laerm;58902;51.436;5.980;2023-07-13T00:40:45;32.38;30.97;34.65;;
71020;Laerm;58902;51.436;5.980;2023-07-13T00:40:55;32.26;30.51;34.10;;
71020;Laerm;58902;51.436;5.980;2023-07-13T00:41:06;35.41;30.26;43.98;;
71020;Laerm;58902;51.436;5.980;2023-07-13T00:41:16;42.92;38.67;47.52;;
71020;Laerm;58902;51.436;5.980;2023-07-13T00:41:26;37.40;33.75;42.41;;
71020;Laerm;58902;51.436;5.980;2023-07-13T00:41:37;36.57;34.29;38.03;;
71020;Laerm;58902;51.436;5.980;2023-07-13T00:41:47;36.68;34.41;38.18;;
71020;Laerm;58902;51.436;5.980;2023-07-13T00:41:57;44.14;35.22;55.39;;
71020;Laerm;58902;51.436;5.980;2023-07-13T00:42:08;72.13;55.68;80.66;;
71020;Laerm;58902;51.436;5.980;2023-07-13T00:42:18;69.33;65.44;73.07;;
71020;Laerm;58902;51.436;5.980;2023-07-13T00:42:29;63.68;42.68;70.85;;
71020;Laerm;58902;51.436;5.980;2023-07-13T00:42:39;41.61;37.28;45.15;;
71020;Laerm;58902;51.436;5.980;2023-07-13T00:42:51;37.13;34.16;49.44;;
71020;Laerm;58902;51.436;5.980;2023-07-13T00:43:02;34.02;31.37;47.54;;
71020;Laerm;58902;51.436;5.980;2023-07-13T00:43:14;32.56;31.14;34.30;;
71020;Laerm;58902;51.436;5.980;2023-07-13T00:43:26;32.31;30.94;33.60;;
71020;Laerm;58902;51.436;5.980;2023-07-13T00:43:37;32.28;30.84;33.61;;
71020;Laerm;58902;51.436;5.980;2023-07-13T00:43:47;32.34;30.74;35.60;;
71020;Laerm;58902;51.436;5.980;2023-07-13T00:43:57;32.31;31.12;33.71;;
71020;Laerm;58902;51.436;5.980;2023-07-13T00:44:12;32.51;30.83;34.05;;
71020;Laerm;58902;51.436;5.980;2023-07-13T00:44:23;32.61;30.94;34.64;;
71020;Laerm;58902;51.436;5.980;2023-07-13T00:44:34;32.63;31.26;35.37;;
71020;Laerm;58902;51.436;5.980;2023-07-13T00:46:26;70.74;36.29;78.29;;
71020;Laerm;58902;51.436;5.980;2023-07-13T00:46:37;51.94;38.48;66.65;;
71020;Laerm;58902;51.436;5.980;2023-07-13T00:46:47;37.82;34.41;44.91;;
71020;Laerm;58902;51.436;5.980;2023-07-13T00:46:57;35.09;33.31;42.65;;
71020;Laerm;58902;51.436;5.980;2023-07-13T00:47:08;33.58;32.02;37.05;;
71020;Laerm;58902;51.436;5.980;2023-07-13T00:47:18;32.64;31.16;34.17;;
71020;Laerm;58902;51.436;5.980;2023-07-13T00:47:29;32.34;30.68;35.52;;
71020;Laerm;58902;51.436;5.980;2023-07-13T00:47:39;32.24;30.58;34.27;;
71020;Laerm;58902;51.436;5.980;2023-07-13T00:47:50;32.17;30.77;33.27;;
71020;Laerm;58902;51.436;5.980;2023-07-13T00:48:00;32.20;30.92;34.29;;
71020;Laerm;58902;51.436;5.980;2023-07-13T00:48:14;32.56;30.89;34.70;;
71020;Laerm;58902;51.436;5.980;2023-07-13T00:48:29;33.07;30.80;35.74;;
71020;Laerm;58902;51.436;5.980;2023-07-13T00:48:41;33.64;31.62;37.83;;
71020;Laerm;58902;51.436;5.980;2023-07-13T00:48:54;35.40;34.10;37.32;;
71020;Laerm;58902;51.436;5.980;2023-07-13T00:49:06;34.76;33.31;36.27;;
71020;Laerm;58902;51.436;5.980;2023-07-13T00:49:19;33.33;31.51;36.27;;
71020;Laerm;58902;51.436;5.980;2023-07-13T00:49:31;32.71;30.65;34.71;;
71020;Laerm;58902;51.436;5.980;2023-07-13T00:49:42;34.05;31.57;38.10;;
71020;Laerm;58902;51.436;5.980;2023-07-13T00:49:52;34.08;31.82;37.63;;
71020;Laerm;58902;51.436;5.980;2023-07-13T00:50:03;34.51;32.15;36.33;;
71020;Laerm;58902;51.436;5.980;2023-07-13T00:50:15;32.18;29.53;43.37;;
71020;Laerm;58902;51.436;5.980;2023-07-13T00:50:27;30.54;29.12;31.69;;
71020;Laerm;58902;51.436;5.980;2023-07-13T00:50:37;30.57;29.49;32.02;;
71020;Laerm;58902;51.436;5.980;2023-07-13T00:50:50;30.52;29.18;32.51;;
71020;Laerm;58902;51.436;5.980;2023-07-13T00:51:02;30.59;29.25;33.13;;
71020;Laerm;58902;51.436;5.980;2023-07-13T00:51:12;30.49;29.41;32.17;;
71020;Laerm;58902;51.436;5.980;2023-07-13T00:51:25;30.59;29.25;32.02;;
71020;Laerm;58902;51.436;5.980;2023-07-13T00:51:52;30.20;29.03;32.59;;
71020;Laerm;58902;51.436;5.980;2023-07-13T00:52:05;30.79;29.27;34.32;;
71020;Laerm;58902;51.436;5.980;2023-07-13T00:52:16;30.98;29.53;32.53;;
71020;Laerm;58902;51.436;5.980;2023-07-13T00:52:26;32.97;30.59;37.49;;
71020;Laerm;58902;51.436;5.980;2023-07-13T00:52:39;34.26;32.17;38.61;;
71020;Laerm;58902;51.436;5.980;2023-07-13T00:52:52;33.77;32.12;36.52;;
71020;Laerm;58902;51.436;5.980;2023-07-13T00:53:03;33.79;31.44;36.05;;
71020;Laerm;58902;51.436;5.980;2023-07-13T00:53:14;33.97;32.13;35.31;;
71020;Laerm;58902;51.436;5.980;2023-07-13T00:53:25;33.43;31.98;34.91;;
71020;Laerm;58902;51.436;5.980;2023-07-13T00:53:36;32.57;30.51;34.29;;
71020;Laerm;58902;51.436;5.980;2023-07-13T00:53:46;32.31;31.01;34.12;;
71020;Laerm;58902;51.436;5.980;2023-07-13T00:53:58;32.00;30.27;33.42;;
71020;Laerm;58902;51.436;5.980;2023-07-13T00:54:10;31.97;30.31;33.43;;
71020;Laerm;58902;51.436;5.980;2023-07-13T00:54:25;31.79;30.55;33.23;;
71020;Laerm;58902;51.436;5.980;2023-07-13T00:54:38;32.33;30.39;33.87;;
71020;Laerm;58902;51.436;5.980;2023-07-13T00:54:49;32.52;31.40;33.87;;
71020;Laerm;58902;51.436;5.980;2023-07-13T00:55:00;32.73;30.33;35.71;;
71020;Laerm;58902;51.436;5.980;2023-07-13T00:55:10;32.29;30.86;33.67;;
71020;Laerm;58902;51.436;5.980;2023-07-13T00:55:22;32.25;30.75;34.04;;
71020;Laerm;58902;51.436;5.980;2023-07-13T00:55:33;31.49;29.82;33.75;;
71020;Laerm;58902;51.436;5.980;2023-07-13T00:55:43;30.83;29.64;32.28;;
71020;Laerm;58902;51.436;5.980;2023-07-13T00:55:54;30.91;29.28;32.27;;
71020;Laerm;58902;51.436;5.980;2023-07-13T00:56:05;30.94;29.66;32.37;;
71020;Laerm;58902;51.436;5.980;2023-07-13T00:56:16;30.73;29.50;32.30;;
71020;Laerm;58902;51.436;5.980;2023-07-13T00:56:27;30.83;29.62;32.55;;
71020;Laerm;58902;51.436;5.980;2023-07-13T00:56:39;31.41;29.93;33.17;;
71020;Laerm;58902;51.436;5.980;2023-07-13T00:56:51;31.66;30.24;33.10;;
71020;Laerm;58902;51.436;5.980;2023-07-13T00:57:03;31.75;30.49;33.05;;
71020;Laerm;58902;51.436;5.980;2023-07-13T00:57:15;31.89;30.16;33.23;;
71020;Laerm;58902;51.436;5.980;2023-07-13T00:57:26;31.75;30.32;33.21;;
71020;Laerm;58902;51.436;5.980;2023-07-13T00:57:37;31.90;30.39;35.16;;
71020;Laerm;58902;51.436;5.980;2023-07-13T00:57:47;31.75;29.85;36.61;;
71020;Laerm;58902;51.436;5.980;2023-07-13T00:57:57;31.72;30.14;34.19;;
71020;Laerm;58902;51.436;5.980;2023-07-13T00:58:08;31.90;30.32;33.45;;
71020;Laerm;58902;51.436;5.980;2023-07-13T00:58:18;32.22;30.25;35.28;;
71020;Laerm;58902;51.436;5.980;2023-07-13T00:58:29;33.17;30.34;38.63;;
71020;Laerm;58902;51.436;5.980;2023-07-13T00:58:40;31.73;30.32;33.08;;
71020;Laerm;58902;51.436;5.980;2023-07-13T00:58:50;32.42;30.53;37.38;;
71020;Laerm;58902;51.436;5.980;2023-07-13T00:59:01;35.35;30.94;38.87;;
71020;Laerm;58902;51.436;5.980;2023-07-13T00:59:13;35.64;34.28;36.90;;
71020;Laerm;58902;51.436;5.980;2023-07-13T00:59:25;34.44;31.55;38.18;;
71020;Laerm;58902;51.436;5.980;2023-07-13T00:59:35;32.88;31.53;34.39;;
71020;Laerm;58902;51.436;5.980;2023-07-13T00:59:47;33.23;31.90;34.43;;
71020;Laerm;58902;51.436;5.980;2023-07-13T00:59:59;33.02;31.44;34.18;;
71020;Laerm;58902;51.436;5.980;2023-07-13T01:00:10;43.06;31.77;52.86;;
71020;Laerm;58902;51.436;5.980;2023-07-13T01:00:22;33.25;31.47;37.82;;
71020;Laerm;58902;51.436;5.980;2023-07-13T01:00:36;32.83;31.44;33.92;;
71020;Laerm;58902;51.436;5.980;2023-07-13T01:00:47;32.68;31.33;34.17;;
71020;Laerm;58902;51.436;5.980;2023-07-13T01:00:58;32.46;31.20;34.42;;
71020;Laerm;58902;51.436;5.980;2023-07-13T01:01:09;32.42;30.96;33.65;;
71020;Laerm;58902;51.436;5.980;2023-07-13T01:01:19;32.52;31.08;34.58;;
71020;Laerm;58902;51.436;5.980;2023-07-13T01:01:30;32.47;31.01;33.53;;
71020;Laerm;58902;51.436;5.980;2023-07-13T01:01:40;32.22;30.76;33.62;;
71020;Laerm;58902;51.436;5.980;2023-07-13T01:01:50;32.33;30.75;33.92;;
71020;Laerm;58902;51.436;5.980;2023-07-13T01:02:01;31.92;30.03;34.61;;
71020;Laerm;58902;51.436;5.980;2023-07-13T01:02:12;31.60;29.86;35.08;;
71020;Laerm;58902;51.436;5.980;2023-07-13T01:02:23;32.28;29.90;43.09;;
71020;Laerm;58902;51.436;5.980;2023-07-13T01:02:34;30.98;29.64;34.03;;
71020;Laerm;58902;51.436;5.980;2023-07-13T01:02:45;30.95;29.75;32.06;;
71020;Laerm;58902;51.436;5.980;2023-07-13T01:02:58;31.25;29.95;32.69;;
71020;Laerm;58902;51.436;5.980;2023-07-13T01:03:09;31.07;29.70;32.60;;
71020;Laerm;58902;51.436;5.980;2023-07-13T01:03:20;30.88;29.39;32.11;;
71020;Laerm;58902;51.436;5.980;2023-07-13T01:03:30;30.92;29.69;31.96;;
71020;Laerm;58902;51.436;5.980;2023-07-13T01:03:40;31.06;29.89;33.83;;
71020;Laerm;58902;51.436;5.980;2023-07-13T01:03:51;31.33;30.00;32.64;;
71020;Laerm;58902;51.436;5.980;2023-07-13T01:04:03;31.57;29.85;34.25;;